Cherry Grove, Oregon
Current Conditions -  °F | °C
As of 7:53 PM on Tuesday 21 Oct 2014 (Local Time) from KHIO Reporting Station
Overcast Overcast  
Wind Chill: 14°   Ceiling: 6500
Heat Index: 14°   Visibility: 10mi
Dew Point: 10°   Wind: 10mph
Humidity: 75%   Direction: 140°SE
Pressure: 29.89"   Gusts: NA
Location:  45.45°N, 123.24°W
Report Text: KHIO 220253Z 14009KT 10SM OVC065 14/10 A2989 RMK AO2 SLP119 T01440100 58016
Loading
Personal Weather Stations






























Interactive Weather Map
Tropical Storm Tracking
New forecast layout! Learn more

10-Day Weather Forecast

Advertisements
Track Severe Weather on mobile